Latest Weather Observations for Learmonth

IDW60801

Issued at 3:35 pm WST Friday 25 April 2014 (issued every 30 minutes, with the page automatically refreshed every 10 minutes)

About weather observations | Map of weather stations | Latest weather observations for WA | Other Formats
Station Details ID: 005007 Name: LEARMONTH AIRPORT Lat: -22.24 Lon: 114.10 Height: 5.0 m
Data from the previous 72 hours. | See also: Recent months at Learmonth
Date/Time
WST
Temp
°C
App
Temp
°C
Dew
Point
Rel
Hum
%
Delta-T
°C
Wind Press
QNH
hPa
Press
MSL
hPa
Rain
since 9 am
mm
Dir
 
Spd
km/h
Gust
km/h
Spd
kts
Gust
kts
25/03:30pm 26.2 27.5 24.0 88 1.5 N 24 33 13 18 1007.8 - 7.8
25/03:00pm 28.2 29.4 23.2 74 3.4 N 22 30 12 16 1007.8 1007.7 7.0
25/02:30pm 27.9 29.4 23.7 78 2.9 N 22 28 12 15 1007.6 - 7.0
25/02:00pm 27.8 29.5 24.6 83 2.2 N 24 30 13 16 1007.7 - 7.0
25/01:30pm 27.1 28.5 24.2 84 2.0 N 24 28 13 15 1008.2 - 6.8
25/01:00pm 27.0 29.4 24.6 87 1.7 N 20 24 11 13 1008.4 - 6.8
25/12:30pm 26.9 28.9 24.6 87 1.6 N 22 26 12 14 1008.7 - 6.8
25/12:08pm 26.0 29.0 24.7 92 0.9 N 17 22 9 12 1008.8 - 6.8
25/12:00pm 25.6 27.9 24.4 93 0.8 NE 20 26 11 14 1008.5 1008.4 6.2
25/11:58am 25.5 27.7 24.3 93 0.8 NE 20 26 11 14 1008.5 - 6.2
25/11:57am 25.4 27.9 24.5 95 0.6 NE 19 22 10 12 1008.6 - 6.2
25/11:30am 25.2 28.0 24.3 95 0.6 N 17 20 9 11 1009.6 - 3.8
25/11:13am 25.5 27.3 24.2 92 0.9 N 22 28 12 15 1009.4 - 0.6
25/11:00am 26.3 28.5 24.3 89 1.4 NNE 20 28 11 15 1009.5 - 0.0
25/10:30am 27.1 28.1 22.8 77 2.9 N 22 28 12 15 1009.8 - 0.0
25/10:00am 27.2 27.5 22.3 74 3.3 N 24 28 13 15 1009.9 - 0.0
25/09:30am 27.9 29.0 22.3 71 3.8 NNE 20 26 11 14 1010.0 - 0.0
25/09:00am 27.1 28.3 22.2 74 3.3 NE 19 22 10 12 1009.7 1009.6 0.0
25/08:30am 26.7 29.3 21.9 75 3.2 NNE 11 19 6 10 1009.7 - 0.0
25/08:00am 25.6 28.6 20.9 75 3.1 NNW 6 7 3 4 1009.7 - 0.0
25/07:30am 24.7 28.7 20.6 78 2.7 CALM 0 0 0 0 1009.7 - 0.0
25/07:00am 24.1 27.6 20.4 80 2.4 SSW 2 6 1 3 1009.6 - 0.0
25/06:30am 23.9 28.0 20.8 83 2.0 CALM 0 0 0 0 1009.2 - 0.0
25/06:00am 23.9 27.9 20.5 81 2.2 CALM 0 0 0 0 1009.1 1009.0 0.0
25/05:30am 24.1 28.0 20.3 79 2.5 CALM 0 0 0 0 1009.1 - 0.0
25/05:00am 24.0 26.6 20.1 79 2.5 NW 6 7 3 4 1009.2 - 0.0
25/04:30am 23.7 27.4 20.0 80 2.4 CALM 0 0 0 0 1008.7 - 0.0
25/04:00am 23.3 26.8 19.6 80 2.4 CALM 0 0 0 0 1008.9 - 0.0
25/03:30am 23.2 26.8 19.8 81 2.2 CALM 0 0 0 0 1008.8 - 0.0
25/03:00am 23.2 26.6 19.4 79 2.4 CALM 0 0 0 0 1009.0 1008.9 0.0
25/02:30am 23.2 27.0 20.1 83 2.0 CALM 0 6 0 3 1009.0 - 0.0
25/02:00am 23.1 25.0 19.7 81 2.2 SSE 9 9 5 5 1009.1 - 0.0
25/01:30am 23.2 26.6 19.3 79 2.5 CALM 0 0 0 0 1009.5 - 0.0
25/01:00am 23.6 27.2 19.7 79 2.5 CALM 0 0 0 0 1009.4 - 0.0
25/12:30am 23.7 27.2 19.5 77 2.7 CALM 0 0 0 0 1009.6 - 0.0
25/12:00am 23.6 26.9 19.9 80 2.4 SW 2 6 1 3 1009.8 1009.7 0.0
 
Date/Time
WST
Temp
°C
App
Temp
°C
Dew
Point
Rel
Hum
%
Delta-T
°C
Wind Press
QNH
hPa
Press
MSL
hPa
Rain
since 9 am
mm
Dir
 
Spd
km/h
Gust
km/h
Spd
kts
Gust
kts
24/11:30pm 23.7 26.2 19.8 79 2.5 SW 6 7 3 4 1010.2 - 0.0
24/11:00pm 24.1 26.4 19.9 77 2.7 SSW 7 9 4 5 1010.5 - 0.0
24/10:30pm 24.5 27.0 20.2 77 2.8 SSW 7 11 4 6 1010.8 - 0.0
24/10:00pm 24.9 26.3 20.3 75 3.0 SW 13 17 7 9 1011.0 - 0.0
24/09:30pm 24.8 26.2 20.3 76 2.9 SSW 13 17 7 9 1011.1 - 0.0
24/09:00pm 24.8 25.8 20.3 76 2.9 SSW 15 20 8 11 1011.0 1010.9 0.0
24/08:30pm 25.2 27.1 20.5 75 3.1 SW 11 15 6 8 1010.8 - 0.0
24/08:00pm 25.7 27.6 20.5 73 3.4 WSW 11 15 6 8 1010.4 - 0.0
24/07:30pm 26.1 27.2 20.5 71 3.7 WSW 15 19 8 10 1010.1 - 0.0
24/07:00pm 26.6 27.1 20.0 67 4.3 WSW 17 20 9 11 1009.9 - 0.0
24/06:30pm 27.3 26.8 18.7 59 5.5 WSW 19 24 10 13 1009.8 - 0.0
24/06:00pm 28.1 27.7 18.0 54 6.4 W 17 22 9 12 1009.2 1009.1 0.0
24/05:30pm 28.9 27.5 16.6 47 7.7 W 19 20 10 11 1008.7 - 0.0
24/05:00pm 29.6 29.5 16.1 44 8.4 W 11 20 6 11 1008.6 - 0.0
24/04:30pm 29.2 29.1 18.8 53 6.7 NNE 17 20 9 11 1008.4 - 0.0
24/04:00pm 29.1 28.0 17.4 49 7.4 NNE 19 22 10 12 1008.1 - 0.0
24/03:30pm 30.0 28.9 17.4 46 8.0 NNE 19 22 10 12 1008.1 - 0.0
24/03:00pm 30.1 27.7 14.5 38 9.5 NNE 20 22 11 12 1008.1 1008.0 0.0
24/02:30pm 30.7 28.6 13.6 35 10.3 NE 17 22 9 12 1008.1 - 0.0
24/02:00pm 30.5 27.9 13.3 35 10.3 NE 19 22 10 12 1008.3 - 0.0
24/01:30pm 30.4 28.8 14.0 36 9.9 NE 15 19 8 10 1008.6 - 0.0
24/01:00pm 29.7 28.2 15.4 42 8.8 NE 17 22 9 12 1009.0 - 0.0
24/12:30pm 29.9 29.2 16.3 43 8.5 NE 15 19 8 10 1009.5 - 0.0
24/12:00pm 28.8 27.9 14.8 42 8.5 ENE 13 17 7 9 1010.1 1010.0 0.0
24/11:30am 27.9 26.3 12.9 39 8.8 ENE 13 15 7 8 1010.6 - 0.0
24/11:00am 28.5 27.6 13.8 40 8.8 ENE 11 17 6 9 1010.9 - 0.0
24/10:30am 27.7 27.5 13.7 42 8.3 ESE 7 11 4 6 1011.4 - 0.0
24/10:00am 27.1 26.4 13.1 42 8.2 SE 9 11 5 6 1011.7 - 0.0
24/09:30am 26.4 26.0 14.1 46 7.3 SSE 9 13 5 7 1011.8 - 0.0
24/09:00am 25.8 24.4 14.6 50 6.7 S 15 17 8 9 1011.8 1011.7 0.0
24/08:30am 25.5 23.9 14.0 49 6.8 SSW 15 19 8 10 1011.6 - 0.0
24/08:00am 24.2 23.7 15.0 56 5.5 SSW 11 15 6 8 1011.4 - 0.0
24/07:30am 22.9 23.4 15.6 63 4.4 SW 7 9 4 5 1011.2 - 0.0
24/07:00am 21.9 22.5 15.7 68 3.7 WSW 7 9 4 5 1010.9 - 0.0
24/06:30am 21.5 21.7 15.8 70 3.4 WSW 9 9 5 5 1010.6 - 0.0
24/06:00am 21.6 21.8 15.8 69 3.5 WSW 9 11 5 6 1010.7 1010.6 0.0
24/05:30am 22.0 22.9 16.2 69 3.5 WSW 6 7 3 4 1010.3 - 0.0
24/05:00am 21.9 22.4 16.5 71 3.3 SW 9 11 5 6 1009.8 - 0.0
24/04:30am 21.1 21.5 16.3 74 2.9 SW 9 9 5 5 1010.0 - 0.0
24/04:00am 21.4 22.2 16.3 72 3.1 SW 7 11 4 6 1009.9 - 0.0
24/03:30am 21.0 21.1 16.4 75 2.8 SW 11 11 6 6 1010.0 - 0.0
24/03:00am 21.4 21.8 16.3 72 3.1 SSW 9 11 5 6 1010.1 1010.0 0.0
24/02:30am 22.4 22.5 16.5 69 3.6 SW 11 13 6 7 1010.4 - 0.0
24/02:00am 23.2 23.1 17.0 68 3.8 SW 13 17 7 9 1010.5 - 0.0
24/01:30am 23.5 23.4 17.9 71 3.5 SSW 15 19 8 10 1010.8 - 0.0
24/01:00am 24.0 24.4 19.1 74 3.1 SSW 15 20 8 11 1011.0 - 0.0
24/12:30am 24.0 25.4 19.5 76 2.9 SSW 11 13 6 7 1010.9 - 0.0
24/12:00am 24.9 26.5 20.0 74 3.2 SW 11 15 6 8 1011.1 1011.0 0.0
 
Date/Time
WST
Temp
°C
App
Temp
°C
Dew
Point
Rel
Hum
%
Delta-T
°C
Wind Press
QNH
hPa
Press
MSL
hPa
Rain
since 9 am
mm
Dir
 
Spd
km/h
Gust
km/h
Spd
kts
Gust
kts
23/11:30pm 24.9 26.9 20.0 74 3.2 SW 9 13 5 7 1011.4 - 0.0
23/11:00pm 24.3 26.1 19.6 75 3.0 SSW 9 13 5 7 1011.4 - 0.0
23/10:30pm 24.6 26.3 19.3 72 3.4 SSW 9 11 5 6 1011.4 - 0.0
23/10:00pm 25.1 26.0 19.3 70 3.7 SW 13 17 7 9 1011.5 - 0.0
23/09:30pm 25.1 26.0 19.3 70 3.7 SSW 13 17 7 9 1011.8 - 0.0
23/09:00pm 25.3 25.8 19.2 69 3.9 SSW 15 19 8 10 1011.9 1011.8 0.0
23/08:30pm 25.6 25.8 18.5 65 4.5 SSW 15 19 8 10 1011.8 - 0.0
23/08:00pm 26.4 27.4 17.7 58 5.5 SW 9 15 5 8 1011.5 - 0.0
23/07:30pm 27.2 27.9 18.8 60 5.4 W 13 17 7 9 1011.4 - 0.0
23/07:00pm 27.8 26.8 14.5 44 8.0 WSW 13 15 7 8 1011.2 - 0.0
23/06:30pm 28.5 27.4 14.4 42 8.5 W 13 15 7 8 1010.9 - 0.0
23/06:00pm 29.2 28.2 15.5 43 8.4 W 15 20 8 11 1010.7 1010.6 0.0
23/05:30pm 29.3 29.0 18.2 51 7.1 W 17 24 9 13 1010.6 - 0.0
23/05:00pm 30.3 28.3 14.9 39 9.4 W 19 24 10 13 1010.4 - 0.0
23/04:30pm 30.9 28.4 13.6 34 10.4 WSW 19 24 10 13 1010.3 - 0.0
23/04:00pm 31.4 29.3 13.7 34 10.7 W 17 24 9 13 1010.0 - 0.0
23/03:30pm 30.0 31.8 20.3 56 6.4 N 11 17 6 9 1010.1 - 0.0
23/03:00pm 28.9 29.7 20.6 61 5.5 NNE 17 22 9 12 1010.1 1010.0 0.0
23/02:30pm 29.5 29.6 20.3 57 6.1 NNE 20 24 11 13 1010.1 - 0.0
23/02:00pm 29.8 30.9 19.7 54 6.6 NE 13 19 7 10 1010.3 - 0.0
23/01:30pm 30.2 30.5 19.5 52 7.0 NE 17 22 9 12 1010.7 - 0.0
23/01:00pm 30.6 31.2 19.4 51 7.3 ENE 15 19 8 10 1011.0 - 0.0
23/12:30pm 29.4 29.6 19.4 55 6.5 ENE 17 19 9 10 1011.4 - 0.0
23/12:00pm 29.1 28.7 19.4 55 6.3 E 20 32 11 17 1011.6 1011.5 0.0
23/11:30am 29.7 29.9 19.4 54 6.7 E 17 24 9 13 1012.0 - 0.0
23/11:00am 30.7 32.3 17.9 46 8.2 WSW 6 13 3 7 1012.6 - 0.0
23/10:30am 30.1 31.2 18.1 48 7.7 SSW 9 13 5 7 1012.8 - 0.0
23/10:00am 28.8 29.3 18.3 53 6.7 SSW 13 19 7 10 1013.0 - 0.0
23/09:30am 28.3 28.7 19.0 57 6.0 SW 15 19 8 10 1013.1 - 0.0
23/09:00am 27.6 28.3 18.9 59 5.6 SW 13 19 7 10 1013.0 1012.9 0.0
23/08:30am 26.3 26.3 16.2 53 6.2 WSW 11 15 6 8 1013.1 - 0.0
23/08:00am 24.7 25.2 16.6 60 5.0 W 9 11 5 6 1012.9 - 0.0
23/07:30am 23.3 26.6 19.1 77 2.7 CALM 0 0 0 0 1012.6 - 0.0
23/07:00am 20.8 22.4 17.9 83 1.8 WSW 6 6 3 3 1012.5 - 0.0
23/06:30am 20.0 21.8 17.4 85 1.6 WSW 4 6 2 3 1012.2 - 0.0
23/06:00am 20.4 22.9 17.3 82 1.9 CALM 0 0 0 0 1012.3 1012.2 0.0
23/05:30am 20.7 22.4 18.0 84 1.7 W 6 7 3 4 1012.1 - 0.0
23/05:00am 20.8 22.9 18.1 84 1.7 W 4 6 2 3 1012.0 - 0.0
23/04:30am 21.0 23.2 18.3 84 1.7 W 4 7 2 4 1011.9 - 0.0
23/04:00am 21.2 22.9 18.6 85 1.6 WSW 7 7 4 4 1012.0 - 0.0
23/03:30am 21.1 22.8 18.5 85 1.6 SW 7 9 4 5 1011.7 - 0.0
23/03:00am 20.6 21.5 18.4 87 1.4 SSW 11 13 6 7 1011.8 1011.7 0.0
23/02:30am 20.7 21.3 18.5 87 1.4 S 13 15 7 8 1012.2 - 0.0
23/02:00am 21.4 22.8 18.7 84 1.7 SSW 9 9 5 5 1012.4 - 0.0
23/01:30am 22.1 23.6 18.9 82 2.0 SSW 9 11 5 6 1012.5 - 0.0
23/01:00am 23.1 24.4 19.2 79 2.5 SW 11 15 6 8 1012.8 - 0.0
23/12:30am 23.6 24.6 19.4 77 2.7 SSW 13 17 7 9 1012.7 - 0.0
23/12:00am 24.4 25.1 19.6 74 3.1 SSW 15 19 8 10 1012.8 1012.7 0.0
 
Date/Time
WST
Temp
°C
App
Temp
°C
Dew
Point
Rel
Hum
%
Delta-T
°C
Wind Press
QNH
hPa
Press
MSL
hPa
Rain
since 9 am
mm
Dir
 
Spd
km/h
Gust
km/h
Spd
kts
Gust
kts
22/11:30pm 25.3 25.6 19.6 70 3.7 SW 17 24 9 13 1013.1 - 0.0
22/11:00pm 25.5 25.9 19.8 70 3.7 SW 17 22 9 12 1013.2 - 0.0
22/10:30pm 25.5 25.9 19.8 70 3.7 SW 17 22 9 12 1013.4 - 0.0
22/10:00pm 25.8 26.1 20.3 71 3.6 SW 19 26 10 14 1013.6 - 0.0
22/09:30pm 25.8 27.2 20.3 71 3.6 SW 13 19 7 10 1013.8 - 0.0
22/09:00pm 25.9 27.7 20.4 71 3.6 SW 11 15 6 8 1013.7 1013.6 0.0
22/08:30pm 26.1 26.6 20.1 69 3.9 WSW 17 20 9 11 1013.5 - 0.0
22/08:00pm 26.1 27.2 19.6 67 4.2 WSW 13 19 7 10 1013.4 - 0.0
22/07:30pm 26.7 26.7 18.9 62 5.0 WSW 17 22 9 12 1012.9 - 0.0
22/07:00pm 27.1 27.6 18.3 58 5.6 WSW 13 20 7 11 1012.3 - 0.0
22/06:30pm 28.0 27.1 16.8 50 7.0 W 17 20 9 11 1012.1 - 0.0
22/06:00pm 29.3 29.8 15.5 43 8.5 WNW 7 19 4 10 1011.8 1011.7 0.0
22/05:30pm 29.6 28.5 14.4 39 9.2 N 13 17 7 9 1011.5 - 0.0
22/05:00pm 30.6 29.2 12.2 32 10.8 N 11 15 6 8 1011.2 - 0.0
22/04:30pm 30.4 28.9 15.3 40 9.3 NNE 17 20 9 11 1010.9 - 0.0
22/04:00pm 31.0 29.3 14.6 37 10.0 NNE 17 20 9 11 1010.7 - 0.0

Other Formats:

Comma delimited format used in spreadsheet applications
http://www.bom.gov.au/fwo/IDW60801/IDW60801.94302.axf

JavaScript Object Notation format (JSON) in row-major order
http://www.bom.gov.au/fwo/IDW60801/IDW60801.94302.json